sensor_id;sensor_type;location;lat;lon;timestamp;P1;durP1;ratioP1;P2;durP2;ratioP2
72603;SDS011;60645;56.968;24.196;2023-04-25T00:01:40;6.53;;;3.55;;
72603;SDS011;60645;56.968;24.196;2023-04-25T00:04:07;7.80;;;3.55;;
72603;SDS011;60645;56.968;24.196;2023-04-25T00:06:34;6.95;;;3.70;;
72603;SDS011;60645;56.968;24.196;2023-04-25T00:09:03;6.57;;;3.83;;
72603;SDS011;60645;56.968;24.196;2023-04-25T00:11:33;6.50;;;3.50;;
72603;SDS011;60645;56.968;24.196;2023-04-25T00:14:00;5.87;;;3.53;;
72603;SDS011;60645;56.968;24.196;2023-04-25T00:16:28;6.20;;;3.85;;
72603;SDS011;60645;56.968;24.196;2023-04-25T00:18:59;6.38;;;3.47;;
72603;SDS011;60645;56.968;24.196;2023-04-25T00:21:27;7.55;;;3.65;;
72603;SDS011;60645;56.968;24.196;2023-04-25T00:23:55;6.67;;;3.37;;
72603;SDS011;60645;56.968;24.196;2023-04-25T00:26:22;6.97;;;3.63;;
72603;SDS011;60645;56.968;24.196;2023-04-25T00:28:49;9.10;;;3.83;;
72603;SDS011;60645;56.968;24.196;2023-04-25T00:31:15;6.18;;;3.80;;
72603;SDS011;60645;56.968;24.196;2023-04-25T00:33:42;6.78;;;3.72;;
72603;SDS011;60645;56.968;24.196;2023-04-25T00:36:09;7.75;;;3.90;;
72603;SDS011;60645;56.968;24.196;2023-04-25T00:38:37;9.73;;;4.03;;
72603;SDS011;60645;56.968;24.196;2023-04-25T00:41:05;7.45;;;4.05;;
72603;SDS011;60645;56.968;24.196;2023-04-25T00:43:34;6.75;;;4.20;;
72603;SDS011;60645;56.968;24.196;2023-04-25T00:46:03;6.65;;;3.58;;
72603;SDS011;60645;56.968;24.196;2023-04-25T00:48:30;8.05;;;4.00;;
72603;SDS011;60645;56.968;24.196;2023-04-25T00:50:58;7.70;;;4.00;;
72603;SDS011;60645;56.968;24.196;2023-04-25T00:53:26;8.13;;;4.32;;
72603;SDS011;60645;56.968;24.196;2023-04-25T00:55:54;8.10;;;4.13;;
72603;SDS011;60645;56.968;24.196;2023-04-25T00:58:21;5.53;;;3.83;;
72603;SDS011;60645;56.968;24.196;2023-04-25T01:00:49;6.15;;;3.88;;
72603;SDS011;60645;56.968;24.196;2023-04-25T01:03:18;5.18;;;4.10;;
72603;SDS011;60645;56.968;24.196;2023-04-25T01:05:46;6.97;;;4.07;;
72603;SDS011;60645;56.968;24.196;2023-04-25T01:08:14;8.25;;;4.45;;
72603;SDS011;60645;56.968;24.196;2023-04-25T01:10:41;7.47;;;3.63;;
72603;SDS011;60645;56.968;24.196;2023-04-25T01:13:08;6.45;;;3.75;;
72603;SDS011;60645;56.968;24.196;2023-04-25T01:15:35;6.30;;;4.18;;
72603;SDS011;60645;56.968;24.196;2023-04-25T01:18:03;7.13;;;4.03;;
72603;SDS011;60645;56.968;24.196;2023-04-25T01:20:31;4.87;;;3.37;;
72603;SDS011;60645;56.968;24.196;2023-04-25T01:22:59;6.65;;;3.75;;
72603;SDS011;60645;56.968;24.196;2023-04-25T01:25:30;6.47;;;3.50;;
72603;SDS011;60645;56.968;24.196;2023-04-25T01:27:57;6.38;;;4.03;;
72603;SDS011;60645;56.968;24.196;2023-04-25T01:30:27;7.05;;;3.65;;
72603;SDS011;60645;56.968;24.196;2023-04-25T01:32:55;6.18;;;3.33;;
72603;SDS011;60645;56.968;24.196;2023-04-25T01:35:23;7.63;;;3.50;;
72603;SDS011;60645;56.968;24.196;2023-04-25T01:37:50;5.80;;;3.83;;
72603;SDS011;60645;56.968;24.196;2023-04-25T01:40:18;6.97;;;3.83;;
72603;SDS011;60645;56.968;24.196;2023-04-25T01:42:46;5.82;;;3.67;;
72603;SDS011;60645;56.968;24.196;2023-04-25T01:45:14;5.27;;;3.10;;
72603;SDS011;60645;56.968;24.196;2023-04-25T01:47:41;5.93;;;3.03;;
72603;SDS011;60645;56.968;24.196;2023-04-25T01:50:10;6.13;;;3.27;;
72603;SDS011;60645;56.968;24.196;2023-04-25T01:52:37;6.47;;;3.23;;
72603;SDS011;60645;56.968;24.196;2023-04-25T01:55:05;5.38;;;3.28;;
72603;SDS011;60645;56.968;24.196;2023-04-25T01:57:32;9.52;;;3.45;;
72603;SDS011;60645;56.968;24.196;2023-04-25T02:00:00;7.82;;;3.67;;
72603;SDS011;60645;56.968;24.196;2023-04-25T02:02:29;6.03;;;3.10;;
72603;SDS011;60645;56.968;24.196;2023-04-25T02:04:56;6.07;;;4.00;;
72603;SDS011;60645;56.968;24.196;2023-04-25T02:07:23;5.40;;;3.50;;
72603;SDS011;60645;56.968;24.196;2023-04-25T02:09:50;5.68;;;3.78;;
72603;SDS011;60645;56.968;24.196;2023-04-25T02:12:16;7.22;;;3.72;;
72603;SDS011;60645;56.968;24.196;2023-04-25T02:14:43;10.00;;;4.07;;
72603;SDS011;60645;56.968;24.196;2023-04-25T02:17:11;6.20;;;3.97;;
72603;SDS011;60645;56.968;24.196;2023-04-25T02:19:39;7.18;;;3.85;;
72603;SDS011;60645;56.968;24.196;2023-04-25T02:22:06;7.68;;;4.00;;
72603;SDS011;60645;56.968;24.196;2023-04-25T02:24:33;6.10;;;3.60;;
72603;SDS011;60645;56.968;24.196;2023-04-25T02:27:01;6.35;;;3.20;;
72603;SDS011;60645;56.968;24.196;2023-04-25T02:29:28;4.95;;;3.03;;
72603;SDS011;60645;56.968;24.196;2023-04-25T02:31:55;5.60;;;3.07;;
72603;SDS011;60645;56.968;24.196;2023-04-25T02:34:22;4.63;;;3.25;;
72603;SDS011;60645;56.968;24.196;2023-04-25T02:36:49;7.15;;;3.65;;
72603;SDS011;60645;56.968;24.196;2023-04-25T02:39:19;4.73;;;3.20;;
72603;SDS011;60645;56.968;24.196;2023-04-25T02:41:48;4.70;;;2.50;;
72603;SDS011;60645;56.968;24.196;2023-04-25T02:44:15;4.68;;;3.25;;
72603;SDS011;60645;56.968;24.196;2023-04-25T02:46:42;4.85;;;3.00;;
72603;SDS011;60645;56.968;24.196;2023-04-25T02:49:09;4.22;;;3.03;;
72603;SDS011;60645;56.968;24.196;2023-04-25T02:51:36;6.63;;;3.07;;
72603;SDS011;60645;56.968;24.196;2023-04-25T02:54:03;7.90;;;3.58;;
72603;SDS011;60645;56.968;24.196;2023-04-25T02:56:29;5.10;;;2.60;;
72603;SDS011;60645;56.968;24.196;2023-04-25T02:58:56;7.43;;;3.00;;
72603;SDS011;60645;56.968;24.196;2023-04-25T03:01:23;4.50;;;2.90;;
72603;SDS011;60645;56.968;24.196;2023-04-25T03:03:50;6.80;;;2.83;;
72603;SDS011;60645;56.968;24.196;2023-04-25T03:06:17;6.53;;;3.30;;
72603;SDS011;60645;56.968;24.196;2023-04-25T03:08:44;4.65;;;3.22;;
72603;SDS011;60645;56.968;24.196;2023-04-25T03:11:11;6.15;;;3.03;;
72603;SDS011;60645;56.968;24.196;2023-04-25T03:13:38;5.65;;;2.75;;
72603;SDS011;60645;56.968;24.196;2023-04-25T03:16:05;4.47;;;3.07;;
72603;SDS011;60645;56.968;24.196;2023-04-25T03:18:32;5.22;;;2.92;;
72603;SDS011;60645;56.968;24.196;2023-04-25T03:20:59;4.93;;;3.05;;
72603;SDS011;60645;56.968;24.196;2023-04-25T03:23:26;5.32;;;2.97;;
72603;SDS011;60645;56.968;24.196;2023-04-25T03:25:53;6.07;;;2.92;;
72603;SDS011;60645;56.968;24.196;2023-04-25T03:28:20;6.60;;;3.00;;
72603;SDS011;60645;56.968;24.196;2023-04-25T03:30:46;8.25;;;3.25;;
72603;SDS011;60645;56.968;24.196;2023-04-25T03:33:13;5.68;;;3.33;;
72603;SDS011;60645;56.968;24.196;2023-04-25T03:35:40;6.15;;;3.50;;
72603;SDS011;60645;56.968;24.196;2023-04-25T03:38:08;5.93;;;3.03;;
72603;SDS011;60645;56.968;24.196;2023-04-25T03:40:35;5.35;;;3.10;;
72603;SDS011;60645;56.968;24.196;2023-04-25T03:43:02;5.82;;;3.22;;
72603;SDS011;60645;56.968;24.196;2023-04-25T03:45:29;7.75;;;3.45;;
72603;SDS011;60645;56.968;24.196;2023-04-25T03:47:57;7.72;;;3.80;;
72603;SDS011;60645;56.968;24.196;2023-04-25T03:50:24;7.65;;;3.42;;
72603;SDS011;60645;56.968;24.196;2023-04-25T03:52:51;6.75;;;3.53;;
72603;SDS011;60645;56.968;24.196;2023-04-25T03:55:18;6.75;;;2.70;;
72603;SDS011;60645;56.968;24.196;2023-04-25T03:57:44;6.38;;;2.92;;
72603;SDS011;60645;56.968;24.196;2023-04-25T04:00:11;8.55;;;3.08;;
72603;SDS011;60645;56.968;24.196;2023-04-25T04:02:39;4.50;;;2.85;;
72603;SDS011;60645;56.968;24.196;2023-04-25T04:05:09;6.75;;;3.03;;
72603;SDS011;60645;56.968;24.196;2023-04-25T04:07:37;4.10;;;2.57;;
72603;SDS011;60645;56.968;24.196;2023-04-25T04:10:06;7.28;;;2.85;;
72603;SDS011;60645;56.968;24.196;2023-04-25T04:12:33;7.35;;;3.20;;
72603;SDS011;60645;56.968;24.196;2023-04-25T04:15:01;6.13;;;3.00;;
72603;SDS011;60645;56.968;24.196;2023-04-25T04:17:30;7.70;;;3.17;;
72603;SDS011;60645;56.968;24.196;2023-04-25T04:19:57;7.22;;;2.90;;
72603;SDS011;60645;56.968;24.196;2023-04-25T04:22:24;5.10;;;2.95;;
72603;SDS011;60645;56.968;24.196;2023-04-25T04:24:51;6.47;;;3.00;;
72603;SDS011;60645;56.968;24.196;2023-04-25T04:27:18;6.93;;;3.40;;
72603;SDS011;60645;56.968;24.196;2023-04-25T04:29:45;9.05;;;3.50;;
72603;SDS011;60645;56.968;24.196;2023-04-25T04:32:13;8.23;;;3.28;;
72603;SDS011;60645;56.968;24.196;2023-04-25T04:34:41;6.97;;;3.10;;
72603;SDS011;60645;56.968;24.196;2023-04-25T04:37:07;9.10;;;3.88;;
72603;SDS011;60645;56.968;24.196;2023-04-25T04:39:36;15.07;;;5.22;;
72603;SDS011;60645;56.968;24.196;2023-04-25T04:42:03;10.32;;;5.20;;
72603;SDS011;60645;56.968;24.196;2023-04-25T04:44:31;8.80;;;4.95;;
72603;SDS011;60645;56.968;24.196;2023-04-25T04:47:01;9.70;;;5.32;;
72603;SDS011;60645;56.968;24.196;2023-04-25T04:49:32;11.60;;;4.05;;
72603;SDS011;60645;56.968;24.196;2023-04-25T04:51:59;7.95;;;4.32;;
72603;SDS011;60645;56.968;24.196;2023-04-25T04:54:26;9.02;;;4.72;;
72603;SDS011;60645;56.968;24.196;2023-04-25T04:56:53;9.80;;;4.55;;
72603;SDS011;60645;56.968;24.196;2023-04-25T04:59:20;9.48;;;5.15;;
72603;SDS011;60645;56.968;24.196;2023-04-25T05:01:47;11.18;;;4.80;;
72603;SDS011;60645;56.968;24.196;2023-04-25T05:04:14;9.63;;;4.78;;
72603;SDS011;60645;56.968;24.196;2023-04-25T05:06:42;8.55;;;4.43;;
72603;SDS011;60645;56.968;24.196;2023-04-25T05:09:13;9.63;;;4.35;;
72603;SDS011;60645;56.968;24.196;2023-04-25T05:11:41;8.13;;;4.30;;
72603;SDS011;60645;56.968;24.196;2023-04-25T05:14:08;7.32;;;3.97;;
72603;SDS011;60645;56.968;24.196;2023-04-25T05:16:34;11.23;;;4.55;;
72603;SDS011;60645;56.968;24.196;2023-04-25T05:19:02;10.68;;;4.53;;
72603;SDS011;60645;56.968;24.196;2023-04-25T05:21:29;7.80;;;4.00;;
72603;SDS011;60645;56.968;24.196;2023-04-25T05:23:57;9.75;;;4.53;;
72603;SDS011;60645;56.968;24.196;2023-04-25T05:26:24;9.95;;;4.85;;
72603;SDS011;60645;56.968;24.196;2023-04-25T05:28:51;8.27;;;4.07;;
72603;SDS011;60645;56.968;24.196;2023-04-25T05:31:18;9.43;;;4.80;;
72603;SDS011;60645;56.968;24.196;2023-04-25T05:33:45;9.63;;;4.50;;
72603;SDS011;60645;56.968;24.196;2023-04-25T05:36:12;8.73;;;4.88;;
72603;SDS011;60645;56.968;24.196;2023-04-25T05:38:39;12.75;;;4.63;;
72603;SDS011;60645;56.968;24.196;2023-04-25T05:41:06;8.52;;;4.53;;
72603;SDS011;60645;56.968;24.196;2023-04-25T05:43:33;8.85;;;4.25;;
72603;SDS011;60645;56.968;24.196;2023-04-25T05:46:00;7.80;;;4.13;;
72603;SDS011;60645;56.968;24.196;2023-04-25T05:48:27;10.20;;;3.45;;
72603;SDS011;60645;56.968;24.196;2023-04-25T05:50:54;8.07;;;3.90;;
72603;SDS011;60645;56.968;24.196;2023-04-25T05:53:21;9.63;;;4.03;;
72603;SDS011;60645;56.968;24.196;2023-04-25T05:55:48;7.63;;;3.03;;
72603;SDS011;60645;56.968;24.196;2023-04-25T05:58:15;6.15;;;3.50;;
72603;SDS011;60645;56.968;24.196;2023-04-25T06:00:42;7.03;;;2.58;;
72603;SDS011;60645;56.968;24.196;2023-04-25T06:03:09;7.27;;;3.33;;
72603;SDS011;60645;56.968;24.196;2023-04-25T06:05:36;5.28;;;2.85;;
72603;SDS011;60645;56.968;24.196;2023-04-25T06:08:03;8.80;;;3.35;;
72603;SDS011;60645;56.968;24.196;2023-04-25T06:10:30;5.82;;;3.13;;
72603;SDS011;60645;56.968;24.196;2023-04-25T06:12:58;8.10;;;3.40;;
72603;SDS011;60645;56.968;24.196;2023-04-25T06:15:25;7.85;;;2.83;;
72603;SDS011;60645;56.968;24.196;2023-04-25T06:17:54;7.95;;;3.22;;
72603;SDS011;60645;56.968;24.196;2023-04-25T06:20:21;7.65;;;3.20;;
72603;SDS011;60645;56.968;24.196;2023-04-25T06:22:50;6.13;;;2.53;;
72603;SDS011;60645;56.968;24.196;2023-04-25T06:25:20;5.90;;;3.33;;
72603;SDS011;60645;56.968;24.196;2023-04-25T06:27:47;6.43;;;2.70;;
72603;SDS011;60645;56.968;24.196;2023-04-25T06:30:14;5.88;;;2.90;;
72603;SDS011;60645;56.968;24.196;2023-04-25T06:32:42;5.63;;;3.15;;
72603;SDS011;60645;56.968;24.196;2023-04-25T06:35:09;5.05;;;2.90;;
72603;SDS011;60645;56.968;24.196;2023-04-25T06:37:36;5.43;;;2.83;;
72603;SDS011;60645;56.968;24.196;2023-04-25T06:40:03;5.15;;;2.70;;
72603;SDS011;60645;56.968;24.196;2023-04-25T06:42:31;5.78;;;2.70;;
72603;SDS011;60645;56.968;24.196;2023-04-25T06:44:58;5.95;;;3.05;;
72603;SDS011;60645;56.968;24.196;2023-04-25T06:47:25;5.53;;;3.15;;
72603;SDS011;60645;56.968;24.196;2023-04-25T06:49:51;6.18;;;2.90;;
72603;SDS011;60645;56.968;24.196;2023-04-25T06:52:19;6.40;;;3.03;;
72603;SDS011;60645;56.968;24.196;2023-04-25T06:54:46;6.43;;;2.80;;
72603;SDS011;60645;56.968;24.196;2023-04-25T06:57:12;9.82;;;3.05;;
72603;SDS011;60645;56.968;24.196;2023-04-25T06:59:39;5.38;;;2.97;;
72603;SDS011;60645;56.968;24.196;2023-04-25T07:02:06;4.72;;;2.63;;
72603;SDS011;60645;56.968;24.196;2023-04-25T07:04:33;7.22;;;3.42;;
72603;SDS011;60645;56.968;24.196;2023-04-25T07:07:01;6.50;;;3.20;;
72603;SDS011;60645;56.968;24.196;2023-04-25T07:09:29;8.20;;;3.28;;
72603;SDS011;60645;56.968;24.196;2023-04-25T07:11:56;6.45;;;3.15;;
72603;SDS011;60645;56.968;24.196;2023-04-25T07:14:23;6.68;;;3.10;;
72603;SDS011;60645;56.968;24.196;2023-04-25T07:16:50;8.30;;;3.35;;
72603;SDS011;60645;56.968;24.196;2023-04-25T07:19:17;7.30;;;3.77;;
72603;SDS011;60645;56.968;24.196;2023-04-25T07:21:44;6.03;;;3.03;;
72603;SDS011;60645;56.968;24.196;2023-04-25T07:24:11;7.03;;;2.78;;
72603;SDS011;60645;56.968;24.196;2023-04-25T07:26:38;5.05;;;2.85;;
72603;SDS011;60645;56.968;24.196;2023-04-25T07:29:05;5.78;;;2.85;;
72603;SDS011;60645;56.968;24.196;2023-04-25T07:31:32;7.40;;;2.92;;
72603;SDS011;60645;56.968;24.196;2023-04-25T07:34:00;5.45;;;2.97;;
72603;SDS011;60645;56.968;24.196;2023-04-25T07:36:27;4.38;;;2.50;;
72603;SDS011;60645;56.968;24.196;2023-04-25T07:38:54;8.03;;;2.90;;
72603;SDS011;60645;56.968;24.196;2023-04-25T07:41:21;5.85;;;2.60;;
72603;SDS011;60645;56.968;24.196;2023-04-25T07:43:48;7.97;;;2.90;;
72603;SDS011;60645;56.968;24.196;2023-04-25T07:46:15;6.50;;;3.10;;
72603;SDS011;60645;56.968;24.196;2023-04-25T07:48:42;4.80;;;2.35;;
72603;SDS011;60645;56.968;24.196;2023-04-25T07:51:09;5.25;;;2.90;;
72603;SDS011;60645;56.968;24.196;2023-04-25T07:53:36;5.85;;;2.35;;
72603;SDS011;60645;56.968;24.196;2023-04-25T07:56:04;7.65;;;2.78;;
72603;SDS011;60645;56.968;24.196;2023-04-25T07:58:31;3.88;;;2.42;;
72603;SDS011;60645;56.968;24.196;2023-04-25T08:00:58;7.07;;;2.63;;
72603;SDS011;60645;56.968;24.196;2023-04-25T08:03:25;5.22;;;2.90;;
72603;SDS011;60645;56.968;24.196;2023-04-25T08:05:52;6.47;;;2.30;;
72603;SDS011;60645;56.968;24.196;2023-04-25T08:08:19;4.25;;;2.13;;
72603;SDS011;60645;56.968;24.196;2023-04-25T08:10:46;5.10;;;2.20;;
72603;SDS011;60645;56.968;24.196;2023-04-25T08:13:14;5.20;;;2.30;;
72603;SDS011;60645;56.968;24.196;2023-04-25T08:15:41;4.20;;;2.35;;
72603;SDS011;60645;56.968;24.196;2023-04-25T08:18:08;6.38;;;2.10;;
72603;SDS011;60645;56.968;24.196;2023-04-25T08:20:35;8.38;;;1.92;;
72603;SDS011;60645;56.968;24.196;2023-04-25T08:23:02;5.70;;;2.00;;
72603;SDS011;60645;56.968;24.196;2023-04-25T08:25:29;5.10;;;2.45;;
72603;SDS011;60645;56.968;24.196;2023-04-25T08:27:56;4.55;;;2.30;;
72603;SDS011;60645;56.968;24.196;2023-04-25T08:30:25;5.70;;;2.42;;
72603;SDS011;60645;56.968;24.196;2023-04-25T08:32:53;6.13;;;2.10;;
72603;SDS011;60645;56.968;24.196;2023-04-25T08:35:21;3.95;;;1.95;;
72603;SDS011;60645;56.968;24.196;2023-04-25T08:37:48;8.45;;;2.45;;
72603;SDS011;60645;56.968;24.196;2023-04-25T08:40:15;7.22;;;1.77;;
72603;SDS011;60645;56.968;24.196;2023-04-25T08:42:42;5.50;;;2.17;;
72603;SDS011;60645;56.968;24.196;2023-04-25T08:45:10;6.50;;;2.22;;
72603;SDS011;60645;56.968;24.196;2023-04-25T08:47:37;5.32;;;1.88;;
72603;SDS011;60645;56.968;24.196;2023-04-25T08:50:05;5.15;;;2.22;;
72603;SDS011;60645;56.968;24.196;2023-04-25T08:52:37;5.85;;;2.55;;
72603;SDS011;60645;56.968;24.196;2023-04-25T08:55:10;7.65;;;2.15;;
72603;SDS011;60645;56.968;24.196;2023-04-25T08:57:40;6.73;;;2.40;;
72603;SDS011;60645;56.968;24.196;2023-04-25T09:00:09;6.38;;;2.00;;
72603;SDS011;60645;56.968;24.196;2023-04-25T09:02:39;4.82;;;2.17;;
72603;SDS011;60645;56.968;24.196;2023-04-25T09:05:06;9.85;;;2.50;;
72603;SDS011;60645;56.968;24.196;2023-04-25T09:07:38;4.75;;;2.40;;
72603;SDS011;60645;56.968;24.196;2023-04-25T09:10:05;4.45;;;2.40;;
72603;SDS011;60645;56.968;24.196;2023-04-25T09:12:32;5.07;;;2.17;;
72603;SDS011;60645;56.968;24.196;2023-04-25T09:15:05;5.97;;;2.60;;
72603;SDS011;60645;56.968;24.196;2023-04-25T09:17:36;5.93;;;2.20;;
72603;SDS011;60645;56.968;24.196;2023-04-25T09:20:07;6.70;;;2.30;;
72603;SDS011;60645;56.968;24.196;2023-04-25T09:22:35;6.18;;;2.75;;
72603;SDS011;60645;56.968;24.196;2023-04-25T09:25:03;4.05;;;2.20;;
72603;SDS011;60645;56.968;24.196;2023-04-25T09:27:35;6.20;;;2.22;;
72603;SDS011;60645;56.968;24.196;2023-04-25T09:30:02;4.47;;;2.08;;
72603;SDS011;60645;56.968;24.196;2023-04-25T09:32:30;4.85;;;2.38;;
72603;SDS011;60645;56.968;24.196;2023-04-25T09:34:57;4.45;;;2.22;;
72603;SDS011;60645;56.968;24.196;2023-04-25T09:37:25;8.75;;;4.28;;
72603;SDS011;60645;56.968;24.196;2023-04-25T09:39:55;6.43;;;3.40;;
72603;SDS011;60645;56.968;24.196;2023-04-25T09:42:25;3.28;;;2.13;;
72603;SDS011;60645;56.968;24.196;2023-04-25T09:44:54;5.03;;;2.10;;
72603;SDS011;60645;56.968;24.196;2023-04-25T09:47:22;5.57;;;2.45;;
72603;SDS011;60645;56.968;24.196;2023-04-25T09:49:51;7.43;;;2.42;;
72603;SDS011;60645;56.968;24.196;2023-04-25T09:52:20;3.72;;;2.75;;
72603;SDS011;60645;56.968;24.196;2023-04-25T09:54:51;6.93;;;2.77;;
72603;SDS011;60645;56.968;24.196;2023-04-25T09:57:19;5.93;;;2.60;;
72603;SDS011;60645;56.968;24.196;2023-04-25T09:59:48;6.07;;;2.40;;
72603;SDS011;60645;56.968;24.196;2023-04-25T10:02:18;4.90;;;2.70;;
72603;SDS011;60645;56.968;24.196;2023-04-25T10:04:50;5.43;;;2.30;;
72603;SDS011;60645;56.968;24.196;2023-04-25T10:07:25;5.20;;;2.15;;
72603;SDS011;60645;56.968;24.196;2023-04-25T10:09:59;7.27;;;2.30;;
72603;SDS011;60645;56.968;24.196;2023-04-25T10:12:32;6.55;;;2.30;;
72603;SDS011;60645;56.968;24.196;2023-04-25T10:15:00;6.00;;;2.60;;
72603;SDS011;60645;56.968;24.196;2023-04-25T10:17:29;8.73;;;2.60;;
72603;SDS011;60645;56.968;24.196;2023-04-25T10:19:56;5.28;;;2.17;;
72603;SDS011;60645;56.968;24.196;2023-04-25T10:22:26;4.57;;;2.22;;
72603;SDS011;60645;56.968;24.196;2023-04-25T10:24:59;6.03;;;2.75;;
72603;SDS011;60645;56.968;24.196;2023-04-25T10:27:30;7.55;;;2.33;;
72603;SDS011;60645;56.968;24.196;2023-04-25T10:30:04;5.63;;;2.58;;
72603;SDS011;60645;56.968;24.196;2023-04-25T10:32:36;5.70;;;2.00;;
72603;SDS011;60645;56.968;24.196;2023-04-25T10:35:36;5.13;;;2.15;;
72603;SDS011;60645;56.968;24.196;2023-04-25T10:37:58;5.53;;;2.40;;
72603;SDS011;60645;56.968;24.196;2023-04-25T10:40:24;4.28;;;2.00;;
72603;SDS011;60645;56.968;24.196;2023-04-25T10:42:52;5.32;;;2.30;;
72603;SDS011;60645;56.968;24.196;2023-04-25T10:45:22;6.20;;;2.60;;
72603;SDS011;60645;56.968;24.196;2023-04-25T10:47:49;3.70;;;1.90;;
72603;SDS011;60645;56.968;24.196;2023-04-25T10:50:16;5.83;;;2.63;;
72603;SDS011;60645;56.968;24.196;2023-04-25T10:52:44;4.45;;;2.38;;
72603;SDS011;60645;56.968;24.196;2023-04-25T10:55:10;5.25;;;2.42;;
72603;SDS011;60645;56.968;24.196;2023-04-25T10:57:41;6.13;;;2.30;;
72603;SDS011;60645;56.968;24.196;2023-04-25T11:00:16;4.88;;;2.13;;
72603;SDS011;60645;56.968;24.196;2023-04-25T11:02:51;5.53;;;2.83;;
72603;SDS011;60645;56.968;24.196;2023-04-25T11:07:56;4.30;;;2.08;;
72603;SDS011;60645;56.968;24.196;2023-04-25T11:10:33;5.05;;;2.38;;
72603;SDS011;60645;56.968;24.196;2023-04-25T11:13:02;6.57;;;1.75;;
72603;SDS011;60645;56.968;24.196;2023-04-25T11:15:29;4.07;;;2.10;;
72603;SDS011;60645;56.968;24.196;2023-04-25T11:17:55;4.78;;;1.90;;
72603;SDS011;60645;56.968;24.196;2023-04-25T11:20:25;4.07;;;2.35;;
72603;SDS011;60645;56.968;24.196;2023-04-25T11:22:52;5.65;;;2.38;;
72603;SDS011;60645;56.968;24.196;2023-04-25T11:25:19;6.15;;;2.60;;
72603;SDS011;60645;56.968;24.196;2023-04-25T11:27:53;3.97;;;2.60;;
72603;SDS011;60645;56.968;24.196;2023-04-25T11:30:25;5.25;;;2.13;;
72603;SDS011;60645;56.968;24.196;2023-04-25T11:32:53;3.00;;;2.50;;
72603;SDS011;60645;56.968;24.196;2023-04-25T11:35:20;4.40;;;2.20;;
72603;SDS011;60645;56.968;24.196;2023-04-25T11:37:49;3.83;;;2.00;;
72603;SDS011;60645;56.968;24.196;2023-04-25T11:40:16;5.30;;;2.53;;
72603;SDS011;60645;56.968;24.196;2023-04-25T11:42:44;5.00;;;2.67;;
72603;SDS011;60645;56.968;24.196;2023-04-25T11:45:12;4.75;;;2.10;;
72603;SDS011;60645;56.968;24.196;2023-04-25T11:47:40;5.97;;;2.33;;
72603;SDS011;60645;56.968;24.196;2023-04-25T11:50:07;9.93;;;2.22;;
72603;SDS011;60645;56.968;24.196;2023-04-25T11:52:35;2.85;;;2.13;;
72603;SDS011;60645;56.968;24.196;2023-04-25T11:55:06;7.22;;;2.38;;
72603;SDS011;60645;56.968;24.196;2023-04-25T11:57:39;3.78;;;2.55;;
72603;SDS011;60645;56.968;24.196;2023-04-25T12:02:40;4.80;;;2.08;;
72603;SDS011;60645;56.968;24.196;2023-04-25T12:05:12;5.28;;;2.35;;
72603;SDS011;60645;56.968;24.196;2023-04-25T12:07:57;4.23;;;2.30;;
72603;SDS011;60645;56.968;24.196;2023-04-25T12:10:24;7.68;;;2.60;;
72603;SDS011;60645;56.968;24.196;2023-04-25T12:12:52;7.00;;;2.33;;
72603;SDS011;60645;56.968;24.196;2023-04-25T12:15:24;4.80;;;2.10;;
72603;SDS011;60645;56.968;24.196;2023-04-25T12:17:52;3.70;;;2.65;;
72603;SDS011;60645;56.968;24.196;2023-04-25T12:20:23;4.38;;;2.33;;
72603;SDS011;60645;56.968;24.196;2023-04-25T12:22:52;4.40;;;2.40;;
72603;SDS011;60645;56.968;24.196;2023-04-25T12:25:37;3.90;;;2.13;;
72603;SDS011;60645;56.968;24.196;2023-04-25T12:30:54;5.40;;;2.20;;
72603;SDS011;60645;56.968;24.196;2023-04-25T12:33:30;7.85;;;2.28;;
72603;SDS011;60645;56.968;24.196;2023-04-25T12:35:58;5.53;;;2.03;;
72603;SDS011;60645;56.968;24.196;2023-04-25T12:38:28;4.70;;;2.20;;
72603;SDS011;60645;56.968;24.196;2023-04-25T12:41:00;5.50;;;2.58;;
72603;SDS011;60645;56.968;24.196;2023-04-25T12:43:27;8.38;;;2.58;;
72603;SDS011;60645;56.968;24.196;2023-04-25T12:45:54;4.22;;;2.03;;
72603;SDS011;60645;56.968;24.196;2023-04-25T12:48:22;9.30;;;2.20;;
72603;SDS011;60645;56.968;24.196;2023-04-25T12:50:50;10.73;;;2.60;;
72603;SDS011;60645;56.968;24.196;2023-04-25T12:53:18;7.78;;;1.92;;
72603;SDS011;60645;56.968;24.196;2023-04-25T12:55:46;10.32;;;2.75;;
72603;SDS011;60645;56.968;24.196;2023-04-25T12:58:15;7.32;;;1.90;;
72603;SDS011;60645;56.968;24.196;2023-04-25T13:00:42;7.38;;;2.22;;
72603;SDS011;60645;56.968;24.196;2023-04-25T13:03:10;4.05;;;2.03;;
72603;SDS011;60645;56.968;24.196;2023-04-25T13:05:39;3.38;;;1.73;;
72603;SDS011;60645;56.968;24.196;2023-04-25T13:08:06;4.60;;;2.17;;
72603;SDS011;60645;56.968;24.196;2023-04-25T13:10:33;8.30;;;2.00;;
72603;SDS011;60645;56.968;24.196;2023-04-25T13:13:00;4.68;;;2.20;;
72603;SDS011;60645;56.968;24.196;2023-04-25T13:15:27;4.10;;;1.85;;
72603;SDS011;60645;56.968;24.196;2023-04-25T13:17:54;7.85;;;2.33;;
72603;SDS011;60645;56.968;24.196;2023-04-25T13:20:22;10.80;;;2.30;;
72603;SDS011;60645;56.968;24.196;2023-04-25T13:22:49;11.17;;;2.57;;
72603;SDS011;60645;56.968;24.196;2023-04-25T13:25:16;8.52;;;2.35;;
72603;SDS011;60645;56.968;24.196;2023-04-25T13:27:43;10.40;;;2.30;;
72603;SDS011;60645;56.968;24.196;2023-04-25T13:30:11;7.07;;;2.17;;
72603;SDS011;60645;56.968;24.196;2023-04-25T13:32:38;5.15;;;2.50;;
72603;SDS011;60645;56.968;24.196;2023-04-25T13:35:06;6.30;;;2.65;;
72603;SDS011;60645;56.968;24.196;2023-04-25T13:37:36;6.32;;;2.63;;
72603;SDS011;60645;56.968;24.196;2023-04-25T13:40:07;6.53;;;2.55;;
72603;SDS011;60645;56.968;24.196;2023-04-25T13:42:36;5.30;;;1.85;;
72603;SDS011;60645;56.968;24.196;2023-04-25T13:45:04;6.10;;;1.80;;
72603;SDS011;60645;56.968;24.196;2023-04-25T13:47:32;14.30;;;2.13;;
72603;SDS011;60645;56.968;24.196;2023-04-25T13:49:59;6.50;;;2.10;;
72603;SDS011;60645;56.968;24.196;2023-04-25T13:52:29;5.28;;;1.75;;
72603;SDS011;60645;56.968;24.196;2023-04-25T13:54:56;8.48;;;2.00;;
72603;SDS011;60645;56.968;24.196;2023-04-25T13:57:23;6.75;;;1.77;;
72603;SDS011;60645;56.968;24.196;2023-04-25T13:59:50;4.80;;;2.20;;
72603;SDS011;60645;56.968;24.196;2023-04-25T14:02:17;5.18;;;2.38;;
72603;SDS011;60645;56.968;24.196;2023-04-25T14:04:44;4.90;;;1.80;;
72603;SDS011;60645;56.968;24.196;2023-04-25T14:07:12;8.60;;;2.38;;
72603;SDS011;60645;56.968;24.196;2023-04-25T14:09:42;7.78;;;1.60;;
72603;SDS011;60645;56.968;24.196;2023-04-25T14:12:09;2.90;;;1.80;;
72603;SDS011;60645;56.968;24.196;2023-04-25T14:14:36;2.42;;;1.83;;
72603;SDS011;60645;56.968;24.196;2023-04-25T14:17:03;6.85;;;2.08;;
72603;SDS011;60645;56.968;24.196;2023-04-25T14:19:31;7.38;;;2.00;;
72603;SDS011;60645;56.968;24.196;2023-04-25T14:21:58;5.40;;;1.80;;
72603;SDS011;60645;56.968;24.196;2023-04-25T14:24:25;3.95;;;2.03;;
72603;SDS011;60645;56.968;24.196;2023-04-25T14:26:52;4.30;;;1.90;;
72603;SDS011;60645;56.968;24.196;2023-04-25T14:29:19;4.82;;;2.13;;
72603;SDS011;60645;56.968;24.196;2023-04-25T14:31:46;4.23;;;1.90;;
72603;SDS011;60645;56.968;24.196;2023-04-25T14:34:13;8.15;;;2.20;;
72603;SDS011;60645;56.968;24.196;2023-04-25T14:36:40;10.75;;;2.53;;
72603;SDS011;60645;56.968;24.196;2023-04-25T14:39:08;9.30;;;2.00;;
72603;SDS011;60645;56.968;24.196;2023-04-25T14:41:36;5.53;;;2.00;;
72603;SDS011;60645;56.968;24.196;2023-04-25T14:44:03;7.60;;;2.30;;
72603;SDS011;60645;56.968;24.196;2023-04-25T14:46:30;6.25;;;2.08;;